sensor_id;sensor_type;location;lat;lon;timestamp;P1;durP1;ratioP1;P2;durP2;ratioP2
4748;SDS011;2388;53.582;9.962;2023-08-06T00:00:06;1.77;;;1.67;;
4748;SDS011;2388;53.582;9.962;2023-08-06T00:02:33;1.43;;;1.27;;
4748;SDS011;2388;53.582;9.962;2023-08-06T00:04:58;1.40;;;1.30;;
4748;SDS011;2388;53.582;9.962;2023-08-06T00:07:24;1.27;;;1.17;;
4748;SDS011;2388;53.582;9.962;2023-08-06T00:09:49;1.47;;;1.37;;
4748;SDS011;2388;53.582;9.962;2023-08-06T00:12:15;1.43;;;1.10;;
4748;SDS011;2388;53.582;9.962;2023-08-06T00:14:40;1.57;;;0.90;;
4748;SDS011;2388;53.582;9.962;2023-08-06T00:17:06;2.60;;;1.33;;
4748;SDS011;2388;53.582;9.962;2023-08-06T00:19:32;1.93;;;1.33;;
4748;SDS011;2388;53.582;9.962;2023-08-06T00:21:57;2.40;;;1.27;;
4748;SDS011;2388;53.582;9.962;2023-08-06T00:24:23;1.27;;;1.13;;
4748;SDS011;2388;53.582;9.962;2023-08-06T00:26:48;1.30;;;1.20;;
4748;SDS011;2388;53.582;9.962;2023-08-06T00:29:14;1.10;;;1.00;;
4748;SDS011;2388;53.582;9.962;2023-08-06T00:31:39;1.27;;;1.17;;
4748;SDS011;2388;53.582;9.962;2023-08-06T00:34:05;1.73;;;1.63;;
4748;SDS011;2388;53.582;9.962;2023-08-06T00:36:30;1.60;;;1.27;;
4748;SDS011;2388;53.582;9.962;2023-08-06T00:38:56;1.50;;;1.40;;
4748;SDS011;2388;53.582;9.962;2023-08-06T00:41:21;2.07;;;1.60;;
4748;SDS011;2388;53.582;9.962;2023-08-06T00:43:47;1.30;;;1.20;;
4748;SDS011;2388;53.582;9.962;2023-08-06T00:46:12;2.20;;;1.53;;
4748;SDS011;2388;53.582;9.962;2023-08-06T00:48:39;1.23;;;1.10;;
4748;SDS011;2388;53.582;9.962;2023-08-06T00:51:05;2.13;;;1.90;;
4748;SDS011;2388;53.582;9.962;2023-08-06T00:53:31;1.70;;;1.60;;
4748;SDS011;2388;53.582;9.962;2023-08-06T00:55:56;2.07;;;1.97;;
4748;SDS011;2388;53.582;9.962;2023-08-06T00:58:23;2.10;;;2.00;;
4748;SDS011;2388;53.582;9.962;2023-08-06T01:00:49;2.23;;;2.03;;
4748;SDS011;2388;53.582;9.962;2023-08-06T01:03:15;2.27;;;1.90;;
4748;SDS011;2388;53.582;9.962;2023-08-06T01:05:40;1.97;;;1.87;;
4748;SDS011;2388;53.582;9.962;2023-08-06T01:08:19;1.90;;;1.80;;
4748;SDS011;2388;53.582;9.962;2023-08-06T01:15:58;1.83;;;1.73;;
4748;SDS011;2388;53.582;9.962;2023-08-06T01:18:25;2.27;;;2.13;;
4748;SDS011;2388;53.582;9.962;2023-08-06T01:20:51;2.10;;;2.00;;
4748;SDS011;2388;53.582;9.962;2023-08-06T01:23:17;2.73;;;2.43;;
4748;SDS011;2388;53.582;9.962;2023-08-06T01:29:17;2.67;;;2.50;;
4748;SDS011;2388;53.582;9.962;2023-08-06T01:31:32;2.70;;;2.50;;
4748;SDS011;2388;53.582;9.962;2023-08-06T01:34:01;3.00;;;2.80;;
4748;SDS011;2388;53.582;9.962;2023-08-06T01:36:29;2.87;;;2.67;;
4748;SDS011;2388;53.582;9.962;2023-08-06T01:38:55;2.73;;;2.53;;
4748;SDS011;2388;53.582;9.962;2023-08-06T01:41:22;2.90;;;2.70;;
4748;SDS011;2388;53.582;9.962;2023-08-06T01:43:47;2.93;;;2.83;;
4748;SDS011;2388;53.582;9.962;2023-08-06T01:46:13;3.07;;;2.73;;
4748;SDS011;2388;53.582;9.962;2023-08-06T01:48:38;3.93;;;2.97;;
4748;SDS011;2388;53.582;9.962;2023-08-06T01:51:04;3.33;;;2.60;;
4748;SDS011;2388;53.582;9.962;2023-08-06T01:53:30;2.80;;;2.60;;
4748;SDS011;2388;53.582;9.962;2023-08-06T01:55:56;3.13;;;2.93;;
4748;SDS011;2388;53.582;9.962;2023-08-06T01:58:22;2.87;;;2.67;;
4748;SDS011;2388;53.582;9.962;2023-08-06T02:00:47;2.90;;;2.70;;
4748;SDS011;2388;53.582;9.962;2023-08-06T02:03:13;2.93;;;2.83;;
4748;SDS011;2388;53.582;9.962;2023-08-06T02:05:39;3.00;;;2.80;;
4748;SDS011;2388;53.582;9.962;2023-08-06T02:08:05;2.70;;;2.57;;
4748;SDS011;2388;53.582;9.962;2023-08-06T02:10:30;2.93;;;2.73;;
4748;SDS011;2388;53.582;9.962;2023-08-06T02:12:56;2.80;;;2.70;;
4748;SDS011;2388;53.582;9.962;2023-08-06T02:15:21;4.03;;;3.20;;
4748;SDS011;2388;53.582;9.962;2023-08-06T02:17:47;2.87;;;2.70;;
4748;SDS011;2388;53.582;9.962;2023-08-06T02:20:12;3.50;;;3.03;;
4748;SDS011;2388;53.582;9.962;2023-08-06T02:22:38;2.93;;;2.53;;
4748;SDS011;2388;53.582;9.962;2023-08-06T02:25:03;3.93;;;2.73;;
4748;SDS011;2388;53.582;9.962;2023-08-06T02:27:29;2.97;;;2.77;;
4748;SDS011;2388;53.582;9.962;2023-08-06T02:29:55;3.10;;;2.90;;
4748;SDS011;2388;53.582;9.962;2023-08-06T02:32:20;2.80;;;2.60;;
4748;SDS011;2388;53.582;9.962;2023-08-06T02:34:46;3.40;;;3.20;;
4748;SDS011;2388;53.582;9.962;2023-08-06T02:37:11;3.07;;;2.87;;
4748;SDS011;2388;53.582;9.962;2023-08-06T02:39:36;2.77;;;2.67;;
4748;SDS011;2388;53.582;9.962;2023-08-06T02:42:04;4.30;;;2.67;;
4748;SDS011;2388;53.582;9.962;2023-08-06T02:44:31;3.10;;;2.90;;
4748;SDS011;2388;53.582;9.962;2023-08-06T02:46:57;2.80;;;2.60;;
4748;SDS011;2388;53.582;9.962;2023-08-06T02:49:22;2.47;;;2.37;;
4748;SDS011;2388;53.582;9.962;2023-08-06T02:51:47;3.10;;;2.90;;
4748;SDS011;2388;53.582;9.962;2023-08-06T02:54:13;3.33;;;3.10;;
4748;SDS011;2388;53.582;9.962;2023-08-06T02:56:42;2.93;;;2.70;;
4748;SDS011;2388;53.582;9.962;2023-08-06T02:59:09;3.30;;;3.00;;
4748;SDS011;2388;53.582;9.962;2023-08-06T03:01:35;3.20;;;2.83;;
4748;SDS011;2388;53.582;9.962;2023-08-06T03:04:01;3.47;;;3.27;;
4748;SDS011;2388;53.582;9.962;2023-08-06T03:06:27;3.73;;;3.43;;
4748;SDS011;2388;53.582;9.962;2023-08-06T03:08:52;3.40;;;3.20;;
4748;SDS011;2388;53.582;9.962;2023-08-06T03:11:17;3.07;;;2.87;;
4748;SDS011;2388;53.582;9.962;2023-08-06T03:13:43;2.37;;;2.23;;
4748;SDS011;2388;53.582;9.962;2023-08-06T03:16:08;2.97;;;2.67;;
4748;SDS011;2388;53.582;9.962;2023-08-06T03:18:34;4.00;;;3.70;;
4748;SDS011;2388;53.582;9.962;2023-08-06T03:20:59;3.00;;;2.70;;
4748;SDS011;2388;53.582;9.962;2023-08-06T03:23:25;3.60;;;3.30;;
4748;SDS011;2388;53.582;9.962;2023-08-06T03:25:50;3.83;;;3.00;;
4748;SDS011;2388;53.582;9.962;2023-08-06T03:28:16;2.80;;;2.60;;
4748;SDS011;2388;53.582;9.962;2023-08-06T03:30:41;2.83;;;2.63;;
4748;SDS011;2388;53.582;9.962;2023-08-06T03:33:07;3.57;;;3.37;;
4748;SDS011;2388;53.582;9.962;2023-08-06T03:35:32;4.27;;;2.97;;
4748;SDS011;2388;53.582;9.962;2023-08-06T03:37:58;3.03;;;2.93;;
4748;SDS011;2388;53.582;9.962;2023-08-06T03:40:23;3.10;;;2.90;;
4748;SDS011;2388;53.582;9.962;2023-08-06T03:42:49;3.07;;;2.90;;
4748;SDS011;2388;53.582;9.962;2023-08-06T03:45:14;4.20;;;3.60;;
4748;SDS011;2388;53.582;9.962;2023-08-06T03:47:40;3.00;;;2.80;;
4748;SDS011;2388;53.582;9.962;2023-08-06T03:50:06;3.60;;;3.30;;
4748;SDS011;2388;53.582;9.962;2023-08-06T03:52:31;2.90;;;2.70;;
4748;SDS011;2388;53.582;9.962;2023-08-06T03:54:57;4.00;;;3.70;;
4748;SDS011;2388;53.582;9.962;2023-08-06T03:57:22;3.27;;;2.97;;
4748;SDS011;2388;53.582;9.962;2023-08-06T03:59:48;3.27;;;2.97;;
4748;SDS011;2388;53.582;9.962;2023-08-06T04:02:13;3.83;;;3.53;;
4748;SDS011;2388;53.582;9.962;2023-08-06T04:04:39;3.20;;;3.00;;
4748;SDS011;2388;53.582;9.962;2023-08-06T04:07:04;3.70;;;2.77;;
4748;SDS011;2388;53.582;9.962;2023-08-06T04:09:30;2.70;;;2.60;;
4748;SDS011;2388;53.582;9.962;2023-08-06T04:11:55;2.80;;;2.60;;
4748;SDS011;2388;53.582;9.962;2023-08-06T04:14:23;3.20;;;2.70;;
4748;SDS011;2388;53.582;9.962;2023-08-06T04:16:49;3.07;;;2.87;;
4748;SDS011;2388;53.582;9.962;2023-08-06T04:19:14;4.50;;;2.50;;
4748;SDS011;2388;53.582;9.962;2023-08-06T04:21:40;3.63;;;3.33;;
4748;SDS011;2388;53.582;9.962;2023-08-06T04:24:05;3.20;;;3.00;;
4748;SDS011;2388;53.582;9.962;2023-08-06T04:26:31;3.77;;;2.67;;
4748;SDS011;2388;53.582;9.962;2023-08-06T04:28:56;4.40;;;3.30;;
4748;SDS011;2388;53.582;9.962;2023-08-06T04:31:22;6.97;;;3.13;;
4748;SDS011;2388;53.582;9.962;2023-08-06T04:33:48;3.90;;;2.97;;
4748;SDS011;2388;53.582;9.962;2023-08-06T04:36:13;5.57;;;3.13;;
4748;SDS011;2388;53.582;9.962;2023-08-06T04:38:39;2.90;;;2.70;;
4748;SDS011;2388;53.582;9.962;2023-08-06T04:41:09;5.80;;;3.33;;
4748;SDS011;2388;53.582;9.962;2023-08-06T04:43:34;4.90;;;3.00;;
4748;SDS011;2388;53.582;9.962;2023-08-06T04:46:00;3.30;;;3.00;;
4748;SDS011;2388;53.582;9.962;2023-08-06T04:48:25;4.30;;;3.57;;
4748;SDS011;2388;53.582;9.962;2023-08-06T04:50:51;3.07;;;2.87;;
4748;SDS011;2388;53.582;9.962;2023-08-06T04:53:16;3.77;;;2.80;;
4748;SDS011;2388;53.582;9.962;2023-08-06T04:55:42;3.27;;;2.97;;
4748;SDS011;2388;53.582;9.962;2023-08-06T04:58:11;7.03;;;3.30;;
4748;SDS011;2388;53.582;9.962;2023-08-06T05:00:37;3.43;;;3.23;;
4748;SDS011;2388;53.582;9.962;2023-08-06T05:03:03;3.40;;;3.10;;
4748;SDS011;2388;53.582;9.962;2023-08-06T05:05:28;3.53;;;3.33;;
4748;SDS011;2388;53.582;9.962;2023-08-06T05:07:54;4.93;;;3.87;;
4748;SDS011;2388;53.582;9.962;2023-08-06T05:10:21;6.00;;;3.93;;
4748;SDS011;2388;53.582;9.962;2023-08-06T05:12:46;4.70;;;3.77;;
4748;SDS011;2388;53.582;9.962;2023-08-06T05:15:12;3.40;;;3.10;;
4748;SDS011;2388;53.582;9.962;2023-08-06T05:17:37;3.63;;;3.33;;
4748;SDS011;2388;53.582;9.962;2023-08-06T05:20:03;3.50;;;3.10;;
4748;SDS011;2388;53.582;9.962;2023-08-06T05:22:29;4.30;;;3.60;;
4748;SDS011;2388;53.582;9.962;2023-08-06T05:24:55;4.97;;;3.40;;
4748;SDS011;2388;53.582;9.962;2023-08-06T05:27:20;3.87;;;3.53;;
4748;SDS011;2388;53.582;9.962;2023-08-06T05:29:46;6.87;;;3.70;;
4748;SDS011;2388;53.582;9.962;2023-08-06T05:32:12;8.73;;;3.67;;
4748;SDS011;2388;53.582;9.962;2023-08-06T05:34:38;3.87;;;3.10;;
4748;SDS011;2388;53.582;9.962;2023-08-06T05:37:04;4.20;;;3.90;;
4748;SDS011;2388;53.582;9.962;2023-08-06T05:39:29;4.53;;;3.37;;
4748;SDS011;2388;53.582;9.962;2023-08-06T05:41:55;4.07;;;2.93;;
4748;SDS011;2388;53.582;9.962;2023-08-06T05:44:21;3.93;;;3.63;;
4748;SDS011;2388;53.582;9.962;2023-08-06T05:46:48;6.60;;;3.63;;
4748;SDS011;2388;53.582;9.962;2023-08-06T05:49:14;4.27;;;3.27;;
4748;SDS011;2388;53.582;9.962;2023-08-06T05:51:40;3.87;;;3.27;;
4748;SDS011;2388;53.582;9.962;2023-08-06T05:54:05;3.87;;;3.57;;
4748;SDS011;2388;53.582;9.962;2023-08-06T05:56:31;5.50;;;4.27;;
4748;SDS011;2388;53.582;9.962;2023-08-06T05:58:56;3.97;;;3.67;;
4748;SDS011;2388;53.582;9.962;2023-08-06T06:01:22;6.97;;;3.87;;
4748;SDS011;2388;53.582;9.962;2023-08-06T06:03:48;7.57;;;3.83;;
4748;SDS011;2388;53.582;9.962;2023-08-06T06:06:13;4.07;;;3.77;;
4748;SDS011;2388;53.582;9.962;2023-08-06T06:08:39;3.87;;;3.57;;
4748;SDS011;2388;53.582;9.962;2023-08-06T06:11:04;3.60;;;3.30;;
4748;SDS011;2388;53.582;9.962;2023-08-06T06:13:30;5.23;;;4.20;;
4748;SDS011;2388;53.582;9.962;2023-08-06T06:15:55;4.00;;;3.60;;
4748;SDS011;2388;53.582;9.962;2023-08-06T06:18:21;5.77;;;3.70;;
4748;SDS011;2388;53.582;9.962;2023-08-06T06:20:47;7.13;;;3.97;;
4748;SDS011;2388;53.582;9.962;2023-08-06T06:23:12;7.30;;;4.20;;
4748;SDS011;2388;53.582;9.962;2023-08-06T06:25:42;4.60;;;4.20;;
4748;SDS011;2388;53.582;9.962;2023-08-06T06:28:08;4.27;;;3.87;;
4748;SDS011;2388;53.582;9.962;2023-08-06T06:30:34;7.63;;;3.60;;
4748;SDS011;2388;53.582;9.962;2023-08-06T06:32:59;7.20;;;4.50;;
4748;SDS011;2388;53.582;9.962;2023-08-06T06:35:25;13.63;;;4.20;;
4748;SDS011;2388;53.582;9.962;2023-08-06T06:37:50;5.60;;;4.10;;
4748;SDS011;2388;53.582;9.962;2023-08-06T06:40:16;4.00;;;3.70;;
4748;SDS011;2388;53.582;9.962;2023-08-06T06:42:42;4.60;;;3.93;;
4748;SDS011;2388;53.582;9.962;2023-08-06T06:45:07;7.00;;;4.27;;
4748;SDS011;2388;53.582;9.962;2023-08-06T06:47:33;5.43;;;3.60;;
4748;SDS011;2388;53.582;9.962;2023-08-06T06:49:59;4.90;;;4.20;;
4748;SDS011;2388;53.582;9.962;2023-08-06T06:52:24;4.40;;;4.00;;
4748;SDS011;2388;53.582;9.962;2023-08-06T06:54:50;5.70;;;4.67;;
4748;SDS011;2388;53.582;9.962;2023-08-06T06:57:15;4.50;;;4.20;;
4748;SDS011;2388;53.582;9.962;2023-08-06T06:59:41;6.50;;;5.20;;
4748;SDS011;2388;53.582;9.962;2023-08-06T07:02:06;4.40;;;4.10;;
4748;SDS011;2388;53.582;9.962;2023-08-06T07:04:32;4.67;;;3.83;;
4748;SDS011;2388;53.582;9.962;2023-08-06T07:06:57;7.27;;;4.27;;
4748;SDS011;2388;53.582;9.962;2023-08-06T07:09:23;6.20;;;4.27;;
4748;SDS011;2388;53.582;9.962;2023-08-06T07:11:48;8.37;;;4.50;;
4748;SDS011;2388;53.582;9.962;2023-08-06T07:14:14;4.73;;;4.30;;
4748;SDS011;2388;53.582;9.962;2023-08-06T07:16:39;4.27;;;3.83;;
4748;SDS011;2388;53.582;9.962;2023-08-06T07:19:05;4.53;;;4.03;;
4748;SDS011;2388;53.582;9.962;2023-08-06T07:21:30;5.60;;;4.37;;
4748;SDS011;2388;53.582;9.962;2023-08-06T07:23:57;7.27;;;4.60;;
4748;SDS011;2388;53.582;9.962;2023-08-06T07:26:24;4.97;;;4.57;;
4748;SDS011;2388;53.582;9.962;2023-08-06T07:28:49;6.03;;;4.67;;
4748;SDS011;2388;53.582;9.962;2023-08-06T07:31:15;9.13;;;4.93;;
4748;SDS011;2388;53.582;9.962;2023-08-06T07:33:40;5.00;;;4.60;;
4748;SDS011;2388;53.582;9.962;2023-08-06T07:36:13;5.10;;;4.63;;
4748;SDS011;2388;53.582;9.962;2023-08-06T07:38:39;7.23;;;4.47;;
4748;SDS011;2388;53.582;9.962;2023-08-06T07:41:05;7.53;;;4.77;;
4748;SDS011;2388;53.582;9.962;2023-08-06T07:43:31;5.33;;;4.83;;
4748;SDS011;2388;53.582;9.962;2023-08-06T07:46:00;4.53;;;4.17;;
4748;SDS011;2388;53.582;9.962;2023-08-06T07:48:26;5.93;;;4.73;;
4748;SDS011;2388;53.582;9.962;2023-08-06T07:50:52;7.40;;;5.10;;
4748;SDS011;2388;53.582;9.962;2023-08-06T07:53:19;7.87;;;4.83;;
4748;SDS011;2388;53.582;9.962;2023-08-06T07:55:48;4.77;;;4.37;;
4748;SDS011;2388;53.582;9.962;2023-08-06T07:58:17;4.30;;;4.00;;
4748;SDS011;2388;53.582;9.962;2023-08-06T08:00:43;5.43;;;4.60;;
4748;SDS011;2388;53.582;9.962;2023-08-06T08:03:10;7.93;;;4.50;;
4748;SDS011;2388;53.582;9.962;2023-08-06T08:05:37;4.70;;;4.30;;
4748;SDS011;2388;53.582;9.962;2023-08-06T08:08:03;7.50;;;5.10;;
4748;SDS011;2388;53.582;9.962;2023-08-06T08:10:29;7.53;;;4.40;;
4748;SDS011;2388;53.582;9.962;2023-08-06T08:12:55;7.27;;;4.97;;
4748;SDS011;2388;53.582;9.962;2023-08-06T08:15:21;5.80;;;4.40;;
4748;SDS011;2388;53.582;9.962;2023-08-06T08:17:46;5.00;;;4.60;;
4748;SDS011;2388;53.582;9.962;2023-08-06T08:20:12;12.03;;;8.90;;
4748;SDS011;2388;53.582;9.962;2023-08-06T08:22:40;10.20;;;8.67;;
4748;SDS011;2388;53.582;9.962;2023-08-06T08:25:05;7.80;;;7.00;;
4748;SDS011;2388;53.582;9.962;2023-08-06T08:27:31;7.47;;;6.80;;
4748;SDS011;2388;53.582;9.962;2023-08-06T08:29:56;7.20;;;5.87;;
4748;SDS011;2388;53.582;9.962;2023-08-06T08:32:22;6.83;;;5.87;;
4748;SDS011;2388;53.582;9.962;2023-08-06T08:34:48;8.87;;;6.13;;
4748;SDS011;2388;53.582;9.962;2023-08-06T08:37:14;7.70;;;5.53;;
4748;SDS011;2388;53.582;9.962;2023-08-06T08:39:39;10.03;;;5.10;;
4748;SDS011;2388;53.582;9.962;2023-08-06T08:42:05;10.80;;;5.07;;
4748;SDS011;2388;53.582;9.962;2023-08-06T08:44:32;5.10;;;4.70;;
4748;SDS011;2388;53.582;9.962;2023-08-06T08:46:58;7.43;;;5.03;;
4748;SDS011;2388;53.582;9.962;2023-08-06T08:49:24;4.73;;;4.13;;
4748;SDS011;2388;53.582;9.962;2023-08-06T08:51:51;6.30;;;5.70;;
4748;SDS011;2388;53.582;9.962;2023-08-06T08:54:18;7.53;;;6.27;;
4748;SDS011;2388;53.582;9.962;2023-08-06T08:56:45;11.70;;;9.80;;
4748;SDS011;2388;53.582;9.962;2023-08-06T08:59:10;8.40;;;7.43;;
4748;SDS011;2388;53.582;9.962;2023-08-06T09:01:36;6.03;;;5.60;;
4748;SDS011;2388;53.582;9.962;2023-08-06T09:04:04;6.90;;;5.73;;
4748;SDS011;2388;53.582;9.962;2023-08-06T09:06:31;5.13;;;4.73;;
4748;SDS011;2388;53.582;9.962;2023-08-06T09:09:06;5.07;;;4.70;;
4748;SDS011;2388;53.582;9.962;2023-08-06T09:11:35;6.47;;;4.47;;
4748;SDS011;2388;53.582;9.962;2023-08-06T09:14:08;4.97;;;4.57;;
4748;SDS011;2388;53.582;9.962;2023-08-06T09:16:35;4.50;;;4.17;;
4748;SDS011;2388;53.582;9.962;2023-08-06T09:19:07;8.90;;;4.30;;
4748;SDS011;2388;53.582;9.962;2023-08-06T09:21:38;5.10;;;4.67;;
4748;SDS011;2388;53.582;9.962;2023-08-06T09:24:08;5.23;;;4.70;;
4748;SDS011;2388;53.582;9.962;2023-08-06T09:26:38;5.03;;;4.57;;
4748;SDS011;2388;53.582;9.962;2023-08-06T09:29:05;9.77;;;5.00;;
4748;SDS011;2388;53.582;9.962;2023-08-06T09:31:32;6.40;;;5.43;;
4748;SDS011;2388;53.582;9.962;2023-08-06T09:34:15;6.67;;;6.10;;
4748;SDS011;2388;53.582;9.962;2023-08-06T09:36:42;40.57;;;19.37;;
4748;SDS011;2388;53.582;9.962;2023-08-06T09:39:15;22.17;;;11.10;;
4748;SDS011;2388;53.582;9.962;2023-08-06T09:41:41;11.30;;;7.63;;
4748;SDS011;2388;53.582;9.962;2023-08-06T09:44:20;7.60;;;5.73;;
4748;SDS011;2388;53.582;9.962;2023-08-06T09:46:48;6.73;;;5.40;;
4748;SDS011;2388;53.582;9.962;2023-08-06T09:49:15;6.30;;;5.07;;
4748;SDS011;2388;53.582;9.962;2023-08-06T09:51:41;5.40;;;4.83;;
4748;SDS011;2388;53.582;9.962;2023-08-06T09:54:07;5.17;;;4.77;;
4748;SDS011;2388;53.582;9.962;2023-08-06T09:56:37;9.63;;;5.30;;
4748;SDS011;2388;53.582;9.962;2023-08-06T09:59:05;7.03;;;5.03;;
4748;SDS011;2388;53.582;9.962;2023-08-06T10:01:32;4.93;;;4.50;;
4748;SDS011;2388;53.582;9.962;2023-08-06T10:04:04;5.00;;;4.70;;
4748;SDS011;2388;53.582;9.962;2023-08-06T10:06:35;4.73;;;4.43;;
4748;SDS011;2388;53.582;9.962;2023-08-06T10:09:02;7.57;;;6.70;;
4748;SDS011;2388;53.582;9.962;2023-08-06T10:11:28;10.17;;;6.77;;
4748;SDS011;2388;53.582;9.962;2023-08-06T10:14:08;8.00;;;7.23;;
4748;SDS011;2388;53.582;9.962;2023-08-06T10:16:39;6.10;;;5.00;;
4748;SDS011;2388;53.582;9.962;2023-08-06T10:19:05;6.63;;;5.77;;
4748;SDS011;2388;53.582;9.962;2023-08-06T10:21:34;4.63;;;4.30;;
4748;SDS011;2388;53.582;9.962;2023-08-06T10:23:59;5.60;;;4.97;;
4748;SDS011;2388;53.582;9.962;2023-08-06T10:26:27;4.60;;;4.10;;
4748;SDS011;2388;53.582;9.962;2023-08-06T10:28:53;5.17;;;4.40;;
4748;SDS011;2388;53.582;9.962;2023-08-06T10:31:19;5.47;;;5.03;;
4748;SDS011;2388;53.582;9.962;2023-08-06T10:33:46;6.10;;;4.80;;
4748;SDS011;2388;53.582;9.962;2023-08-06T10:36:13;6.57;;;4.90;;
4748;SDS011;2388;53.582;9.962;2023-08-06T10:38:49;5.60;;;5.10;;
4748;SDS011;2388;53.582;9.962;2023-08-06T10:41:28;5.33;;;5.00;;
4748;SDS011;2388;53.582;9.962;2023-08-06T10:44:06;5.60;;;4.87;;
4748;SDS011;2388;53.582;9.962;2023-08-06T10:46:33;7.10;;;4.77;;
4748;SDS011;2388;53.582;9.962;2023-08-06T10:48:59;8.57;;;7.40;;
4748;SDS011;2388;53.582;9.962;2023-08-06T10:51:25;11.50;;;6.50;;
4748;SDS011;2388;53.582;9.962;2023-08-06T10:53:52;8.90;;;7.10;;
4748;SDS011;2388;53.582;9.962;2023-08-06T10:56:19;8.60;;;7.17;;
4748;SDS011;2388;53.582;9.962;2023-08-06T10:58:47;7.07;;;5.27;;
4748;SDS011;2388;53.582;9.962;2023-08-06T11:01:13;7.40;;;5.30;;
4748;SDS011;2388;53.582;9.962;2023-08-06T11:03:40;6.20;;;4.90;;
4748;SDS011;2388;53.582;9.962;2023-08-06T11:06:07;9.20;;;6.00;;
4748;SDS011;2388;53.582;9.962;2023-08-06T11:08:36;6.33;;;5.83;;
4748;SDS011;2388;53.582;9.962;2023-08-06T11:11:09;12.30;;;7.40;;
4748;SDS011;2388;53.582;9.962;2023-08-06T11:13:44;6.23;;;5.10;;
4748;SDS011;2388;53.582;9.962;2023-08-06T11:16:12;5.83;;;5.30;;
4748;SDS011;2388;53.582;9.962;2023-08-06T11:18:42;5.67;;;5.10;;
4748;SDS011;2388;53.582;9.962;2023-08-06T11:21:08;4.93;;;4.63;;
4748;SDS011;2388;53.582;9.962;2023-08-06T11:23:34;5.27;;;4.77;;
4748;SDS011;2388;53.582;9.962;2023-08-06T11:26:00;5.57;;;5.07;;
4748;SDS011;2388;53.582;9.962;2023-08-06T11:28:26;5.60;;;5.10;;
4748;SDS011;2388;53.582;9.962;2023-08-06T11:30:52;5.60;;;5.10;;
4748;SDS011;2388;53.582;9.962;2023-08-06T11:33:24;5.20;;;4.80;;
4748;SDS011;2388;53.582;9.962;2023-08-06T11:35:50;6.07;;;5.47;;
4748;SDS011;2388;53.582;9.962;2023-08-06T11:38:16;6.20;;;5.60;;
4748;SDS011;2388;53.582;9.962;2023-08-06T11:40:43;6.20;;;4.90;;
4748;SDS011;2388;53.582;9.962;2023-08-06T11:43:10;8.00;;;5.20;;
4748;SDS011;2388;53.582;9.962;2023-08-06T11:45:37;5.20;;;4.80;;
4748;SDS011;2388;53.582;9.962;2023-08-06T11:48:02;6.30;;;5.30;;
4748;SDS011;2388;53.582;9.962;2023-08-06T11:50:28;5.87;;;5.10;;
4748;SDS011;2388;53.582;9.962;2023-08-06T11:52:58;6.17;;;5.57;;
4748;SDS011;2388;53.582;9.962;2023-08-06T11:55:25;4.90;;;4.60;;
4748;SDS011;2388;53.582;9.962;2023-08-06T11:57:53;4.57;;;4.17;;
4748;SDS011;2388;53.582;9.962;2023-08-06T12:00:19;4.87;;;4.40;;
4748;SDS011;2388;53.582;9.962;2023-08-06T12:02:47;5.00;;;4.70;;
4748;SDS011;2388;53.582;9.962;2023-08-06T12:05:15;12.10;;;8.83;;
4748;SDS011;2388;53.582;9.962;2023-08-06T12:07:42;12.10;;;9.10;;
4748;SDS011;2388;53.582;9.962;2023-08-06T12:10:17;7.93;;;6.83;;
4748;SDS011;2388;53.582;9.962;2023-08-06T12:12:44;8.00;;;7.30;;
4748;SDS011;2388;53.582;9.962;2023-08-06T12:15:10;5.63;;;5.10;;
4748;SDS011;2388;53.582;9.962;2023-08-06T12:17:36;5.20;;;4.80;;
4748;SDS011;2388;53.582;9.962;2023-08-06T12:20:02;5.80;;;5.30;;
4748;SDS011;2388;53.582;9.962;2023-08-06T12:22:31;5.77;;;5.10;;
4748;SDS011;2388;53.582;9.962;2023-08-06T12:25:00;6.27;;;4.60;;
4748;SDS011;2388;53.582;9.962;2023-08-06T12:27:27;5.23;;;4.50;;
4748;SDS011;2388;53.582;9.962;2023-08-06T12:29:53;6.97;;;5.17;;
4748;SDS011;2388;53.582;9.962;2023-08-06T12:32:19;7.20;;;6.60;;
4748;SDS011;2388;53.582;9.962;2023-08-06T12:34:44;8.03;;;7.20;;
4748;SDS011;2388;53.582;9.962;2023-08-06T12:37:10;8.67;;;7.83;;
4748;SDS011;2388;53.582;9.962;2023-08-06T12:39:36;6.50;;;6.00;;
4748;SDS011;2388;53.582;9.962;2023-08-06T12:42:04;6.10;;;5.60;;
4748;SDS011;2388;53.582;9.962;2023-08-06T12:44:30;25.87;;;16.20;;
4748;SDS011;2388;53.582;9.962;2023-08-06T12:46:56;32.63;;;19.07;;
4748;SDS011;2388;53.582;9.962;2023-08-06T12:49:22;15.83;;;12.17;;
4748;SDS011;2388;53.582;9.962;2023-08-06T12:51:49;10.60;;;8.37;;
4748;SDS011;2388;53.582;9.962;2023-08-06T12:54:22;5.27;;;4.87;;
4748;SDS011;2388;53.582;9.962;2023-08-06T12:56:47;6.33;;;4.60;;
4748;SDS011;2388;53.582;9.962;2023-08-06T12:59:14;4.47;;;4.07;;
4748;SDS011;2388;53.582;9.962;2023-08-06T13:01:40;4.47;;;3.87;;
4748;SDS011;2388;53.582;9.962;2023-08-06T13:04:06;5.07;;;4.47;;
4748;SDS011;2388;53.582;9.962;2023-08-06T13:06:32;8.13;;;4.03;;
4748;SDS011;2388;53.582;9.962;2023-08-06T13:09:02;5.00;;;4.07;;
4748;SDS011;2388;53.582;9.962;2023-08-06T13:11:28;5.33;;;4.67;;
4748;SDS011;2388;53.582;9.962;2023-08-06T13:13:56;9.87;;;4.67;;
4748;SDS011;2388;53.582;9.962;2023-08-06T13:16:28;4.67;;;4.27;;
4748;SDS011;2388;53.582;9.962;2023-08-06T13:18:54;4.80;;;4.10;;
4748;SDS011;2388;53.582;9.962;2023-08-06T13:21:19;4.30;;;3.90;;
4748;SDS011;2388;53.582;9.962;2023-08-06T13:23:45;3.90;;;3.60;;
4748;SDS011;2388;53.582;9.962;2023-08-06T13:26:10;4.67;;;3.77;;
4748;SDS011;2388;53.582;9.962;2023-08-06T13:28:35;4.33;;;3.93;;
4748;SDS011;2388;53.582;9.962;2023-08-06T13:31:01;4.07;;;3.67;;
4748;SDS011;2388;53.582;9.962;2023-08-06T13:33:26;4.90;;;4.47;;
4748;SDS011;2388;53.582;9.962;2023-08-06T13:35:52;4.90;;;3.80;;
4748;SDS011;2388;53.582;9.962;2023-08-06T13:38:17;7.50;;;4.10;;
4748;SDS011;2388;53.582;9.962;2023-08-06T13:40:43;4.20;;;3.80;;
4748;SDS011;2388;53.582;9.962;2023-08-06T13:43:09;3.80;;;3.50;;
4748;SDS011;2388;53.582;9.962;2023-08-06T13:45:34;4.60;;;4.00;;
4748;SDS011;2388;53.582;9.962;2023-08-06T13:48:01;6.00;;;4.23;;
4748;SDS011;2388;53.582;9.962;2023-08-06T13:50:28;6.40;;;5.70;;
4748;SDS011;2388;53.582;9.962;2023-08-06T13:52:54;9.90;;;3.97;;
4748;SDS011;2388;53.582;9.962;2023-08-06T13:55:20;3.50;;;3.20;;
4748;SDS011;2388;53.582;9.962;2023-08-06T13:57:46;3.63;;;3.33;;
4748;SDS011;2388;53.582;9.962;2023-08-06T14:00:12;3.10;;;2.90;;
4748;SDS011;2388;53.582;9.962;2023-08-06T14:02:37;4.40;;;4.00;;
4748;SDS011;2388;53.582;9.962;2023-08-06T14:05:03;5.20;;;4.70;;
4748;SDS011;2388;53.582;9.962;2023-08-06T14:07:30;4.47;;;4.17;;
4748;SDS011;2388;53.582;9.962;2023-08-06T14:09:55;3.90;;;3.57;;
4748;SDS011;2388;53.582;9.962;2023-08-06T14:12:22;3.23;;;2.93;;
4748;SDS011;2388;53.582;9.962;2023-08-06T14:14:48;3.47;;;3.17;;
4748;SDS011;2388;53.582;9.962;2023-08-06T14:17:13;6.80;;;3.40;;
4748;SDS011;2388;53.582;9.962;2023-08-06T14:19:39;7.40;;;3.67;;
4748;SDS011;2388;53.582;9.962;2023-08-06T14:22:04;3.87;;;2.77;;
4748;SDS011;2388;53.582;9.962;2023-08-06T14:24:30;2.53;;;2.33;;
4748;SDS011;2388;53.582;9.962;2023-08-06T14:26:55;4.07;;;2.10;;
4748;SDS011;2388;53.582;9.962;2023-08-06T14:29:21;2.73;;;2.07;;
4748;SDS011;2388;53.582;9.962;2023-08-06T14:31:47;3.17;;;2.33;;
4748;SDS011;2388;53.582;9.962;2023-08-06T14:34:12;2.60;;;2.37;;
4748;SDS011;2388;53.582;9.962;2023-08-06T14:36:37;4.10;;;2.40;;
4748;SDS011;2388;53.582;9.962;2023-08-06T14:39:03;2.63;;;1.93;;
4748;SDS011;2388;53.582;9.962;2023-08-06T14:41:28;2.87;;;2.23;;
4748;SDS011;2388;53.582;9.962;2023-08-06T14:43:54;2.40;;;2.20;;
4748;SDS011;2388;53.582;9.962;2023-08-06T14:46:19;2.17;;;2.07;;
4748;SDS011;2388;53.582;9.962;2023-08-06T14:48:45;2.50;;;1.90;;
4748;SDS011;2388;53.582;9.962;2023-08-06T14:51:10;2.67;;;2.43;;
4748;SDS011;2388;53.582;9.962;2023-08-06T14:53:36;3.87;;;2.00;;
4748;SDS011;2388;53.582;9.962;2023-08-06T14:56:01;1.70;;;1.60;;
4748;SDS011;2388;53.582;9.962;2023-08-06T14:58:27;2.03;;;1.80;;
4748;SDS011;2388;53.582;9.962;2023-08-06T15:00:53;2.33;;;1.70;;
4748;SDS011;2388;53.582;9.962;2023-08-06T15:03:18;2.67;;;2.30;;
4748;SDS011;2388;53.582;9.962;2023-08-06T15:05:46;2.90;;;1.90;;
4748;SDS011;2388;53.582;9.962;2023-08-06T15:08:12;4.93;;;2.40;;
4748;SDS011;2388;53.582;9.962;2023-08-06T15:10:37;2.33;;;2.13;;
4748;SDS011;2388;53.582;9.962;2023-08-06T15:13:03;2.60;;;1.83;;
4748;SDS011;2388;53.582;9.962;2023-08-06T15:15:28;1.80;;;1.70;;
4748;SDS011;2388;53.582;9.962;2023-08-06T15:17:54;4.57;;;2.23;;